sensor_id;sensor_type;location;lat;lon;timestamp;P1;durP1;ratioP1;P2;durP2;ratioP2
27895;SDS011;15241;48.374;10.876;2023-03-01T00:00:12;20.45;;;11.68;;
27895;SDS011;15241;48.374;10.876;2023-03-01T00:05:11;20.20;;;12.40;;
27895;SDS011;15241;48.374;10.876;2023-03-01T00:10:11;20.20;;;12.80;;
27895;SDS011;15241;48.374;10.876;2023-03-01T00:15:10;21.97;;;13.35;;
27895;SDS011;15241;48.374;10.876;2023-03-01T00:20:11;21.55;;;12.95;;
27895;SDS011;15241;48.374;10.876;2023-03-01T00:25:10;19.37;;;13.28;;
27895;SDS011;15241;48.374;10.876;2023-03-01T00:30:10;21.75;;;12.43;;
27895;SDS011;15241;48.374;10.876;2023-03-01T00:35:09;20.88;;;12.03;;
27895;SDS011;15241;48.374;10.876;2023-03-01T00:40:09;18.27;;;12.43;;
27895;SDS011;15241;48.374;10.876;2023-03-01T00:45:10;25.70;;;13.20;;
27895;SDS011;15241;48.374;10.876;2023-03-01T00:50:10;21.55;;;13.50;;
27895;SDS011;15241;48.374;10.876;2023-03-01T00:55:10;20.50;;;12.95;;
27895;SDS011;15241;48.374;10.876;2023-03-01T01:00:11;22.65;;;13.13;;
27895;SDS011;15241;48.374;10.876;2023-03-01T01:05:10;20.90;;;11.97;;
27895;SDS011;15241;48.374;10.876;2023-03-01T01:10:10;19.25;;;12.33;;
27895;SDS011;15241;48.374;10.876;2023-03-01T01:15:10;20.17;;;13.22;;
27895;SDS011;15241;48.374;10.876;2023-03-01T01:20:11;19.50;;;12.15;;
27895;SDS011;15241;48.374;10.876;2023-03-01T01:25:10;20.15;;;12.47;;
27895;SDS011;15241;48.374;10.876;2023-03-01T01:30:10;23.40;;;13.78;;
27895;SDS011;15241;48.374;10.876;2023-03-01T01:35:10;20.10;;;12.90;;
27895;SDS011;15241;48.374;10.876;2023-03-01T01:40:12;21.40;;;13.83;;
27895;SDS011;15241;48.374;10.876;2023-03-01T01:45:28;20.32;;;12.88;;
27895;SDS011;15241;48.374;10.876;2023-03-01T01:50:29;22.55;;;13.28;;
27895;SDS011;15241;48.374;10.876;2023-03-01T01:55:29;24.77;;;14.90;;
27895;SDS011;15241;48.374;10.876;2023-03-01T02:00:28;22.87;;;13.28;;
27895;SDS011;15241;48.374;10.876;2023-03-01T02:05:36;22.42;;;14.33;;
27895;SDS011;15241;48.374;10.876;2023-03-01T02:10:33;20.43;;;12.85;;
27895;SDS011;15241;48.374;10.876;2023-03-01T02:15:33;20.60;;;12.98;;
27895;SDS011;15241;48.374;10.876;2023-03-01T02:20:35;23.73;;;13.70;;
27895;SDS011;15241;48.374;10.876;2023-03-01T02:25:39;19.02;;;13.40;;
27895;SDS011;15241;48.374;10.876;2023-03-01T02:30:41;23.50;;;13.60;;
27895;SDS011;15241;48.374;10.876;2023-03-01T02:35:41;23.12;;;14.40;;
27895;SDS011;15241;48.374;10.876;2023-03-01T02:40:40;18.52;;;12.05;;
27895;SDS011;15241;48.374;10.876;2023-03-01T02:45:43;21.00;;;13.30;;
27895;SDS011;15241;48.374;10.876;2023-03-01T02:50:51;21.87;;;13.75;;
27895;SDS011;15241;48.374;10.876;2023-03-01T02:55:52;23.52;;;13.55;;
27895;SDS011;15241;48.374;10.876;2023-03-01T03:00:51;20.80;;;13.93;;
27895;SDS011;15241;48.374;10.876;2023-03-01T03:05:50;22.15;;;14.18;;
27895;SDS011;15241;48.374;10.876;2023-03-01T03:10:49;22.40;;;13.62;;
27895;SDS011;15241;48.374;10.876;2023-03-01T03:15:48;24.30;;;14.28;;
27895;SDS011;15241;48.374;10.876;2023-03-01T03:20:47;25.92;;;14.73;;
27895;SDS011;15241;48.374;10.876;2023-03-01T03:25:48;22.13;;;13.15;;
27895;SDS011;15241;48.374;10.876;2023-03-01T03:36:22;22.15;;;13.32;;
27895;SDS011;15241;48.374;10.876;2023-03-01T03:41:22;20.62;;;13.10;;
27895;SDS011;15241;48.374;10.876;2023-03-01T03:46:21;25.32;;;14.38;;
27895;SDS011;15241;48.374;10.876;2023-03-01T03:51:20;23.45;;;14.80;;
27895;SDS011;15241;48.374;10.876;2023-03-01T03:56:19;23.42;;;13.35;;
27895;SDS011;15241;48.374;10.876;2023-03-01T04:01:18;21.27;;;13.90;;
27895;SDS011;15241;48.374;10.876;2023-03-01T04:06:17;23.00;;;13.93;;
27895;SDS011;15241;48.374;10.876;2023-03-01T04:11:16;21.07;;;14.10;;
27895;SDS011;15241;48.374;10.876;2023-03-01T04:16:15;22.48;;;13.88;;
27895;SDS011;15241;48.374;10.876;2023-03-01T04:21:15;22.62;;;13.72;;
27895;SDS011;15241;48.374;10.876;2023-03-01T04:26:14;24.12;;;14.43;;
27895;SDS011;15241;48.374;10.876;2023-03-01T04:31:15;22.95;;;13.53;;
27895;SDS011;15241;48.374;10.876;2023-03-01T04:36:15;23.05;;;13.43;;
27895;SDS011;15241;48.374;10.876;2023-03-01T04:41:16;24.10;;;14.90;;
27895;SDS011;15241;48.374;10.876;2023-03-01T04:46:17;24.40;;;13.68;;
27895;SDS011;15241;48.374;10.876;2023-03-01T04:51:17;23.83;;;13.78;;
27895;SDS011;15241;48.374;10.876;2023-03-01T04:56:16;22.22;;;13.85;;
27895;SDS011;15241;48.374;10.876;2023-03-01T05:01:16;25.05;;;14.60;;
27895;SDS011;15241;48.374;10.876;2023-03-01T05:06:16;21.62;;;13.60;;
27895;SDS011;15241;48.374;10.876;2023-03-01T05:11:17;22.98;;;14.55;;
27895;SDS011;15241;48.374;10.876;2023-03-01T05:16:15;24.37;;;13.85;;
27895;SDS011;15241;48.374;10.876;2023-03-01T05:21:14;23.57;;;13.58;;
27895;SDS011;15241;48.374;10.876;2023-03-01T05:26:14;24.30;;;13.50;;
27895;SDS011;15241;48.374;10.876;2023-03-01T05:31:14;22.02;;;13.22;;
27895;SDS011;15241;48.374;10.876;2023-03-01T05:36:24;21.40;;;13.62;;
27895;SDS011;15241;48.374;10.876;2023-03-01T05:41:25;24.80;;;13.78;;
27895;SDS011;15241;48.374;10.876;2023-03-01T05:46:24;24.05;;;14.05;;
27895;SDS011;15241;48.374;10.876;2023-03-01T05:51:23;26.57;;;14.30;;
27895;SDS011;15241;48.374;10.876;2023-03-01T05:56:22;24.75;;;14.65;;
27895;SDS011;15241;48.374;10.876;2023-03-01T06:01:21;23.98;;;14.85;;
27895;SDS011;15241;48.374;10.876;2023-03-01T06:06:20;24.55;;;13.83;;
27895;SDS011;15241;48.374;10.876;2023-03-01T06:11:19;26.85;;;15.98;;
27895;SDS011;15241;48.374;10.876;2023-03-01T06:16:18;22.62;;;14.35;;
27895;SDS011;15241;48.374;10.876;2023-03-01T06:21:17;25.08;;;14.83;;
27895;SDS011;15241;48.374;10.876;2023-03-01T06:26:16;27.70;;;15.98;;
27895;SDS011;15241;48.374;10.876;2023-03-01T06:31:15;30.32;;;15.10;;
27895;SDS011;15241;48.374;10.876;2023-03-01T06:36:14;24.45;;;15.15;;
27895;SDS011;15241;48.374;10.876;2023-03-01T06:41:16;27.73;;;15.63;;
27895;SDS011;15241;48.374;10.876;2023-03-01T06:46:15;30.72;;;16.57;;
27895;SDS011;15241;48.374;10.876;2023-03-01T06:51:14;28.15;;;15.20;;
27895;SDS011;15241;48.374;10.876;2023-03-01T06:56:13;29.32;;;15.78;;
27895;SDS011;15241;48.374;10.876;2023-03-01T07:01:12;27.87;;;16.32;;
27895;SDS011;15241;48.374;10.876;2023-03-01T07:06:11;27.48;;;15.90;;
27895;SDS011;15241;48.374;10.876;2023-03-01T07:11:10;27.07;;;15.23;;
27895;SDS011;15241;48.374;10.876;2023-03-01T07:16:09;26.25;;;14.93;;
27895;SDS011;15241;48.374;10.876;2023-03-01T07:21:08;26.57;;;14.83;;
27895;SDS011;15241;48.374;10.876;2023-03-01T07:26:09;25.17;;;15.08;;
27895;SDS011;15241;48.374;10.876;2023-03-01T07:31:08;25.43;;;14.40;;
27895;SDS011;15241;48.374;10.876;2023-03-01T07:36:08;24.90;;;14.95;;
27895;SDS011;15241;48.374;10.876;2023-03-01T07:41:08;27.00;;;15.93;;
27895;SDS011;15241;48.374;10.876;2023-03-01T07:46:07;24.92;;;14.33;;
27895;SDS011;15241;48.374;10.876;2023-03-01T07:51:06;24.18;;;14.55;;
27895;SDS011;15241;48.374;10.876;2023-03-01T07:56:06;21.25;;;14.33;;
27895;SDS011;15241;48.374;10.876;2023-03-01T08:01:08;28.17;;;15.48;;
27895;SDS011;15241;48.374;10.876;2023-03-01T08:06:09;21.23;;;14.70;;
27895;SDS011;15241;48.374;10.876;2023-03-01T08:11:10;24.75;;;15.18;;
27895;SDS011;15241;48.374;10.876;2023-03-01T08:16:12;24.00;;;16.07;;
27895;SDS011;15241;48.374;10.876;2023-03-01T08:21:12;25.85;;;16.35;;
27895;SDS011;15241;48.374;10.876;2023-03-01T08:26:13;24.23;;;14.28;;
27895;SDS011;15241;48.374;10.876;2023-03-01T08:31:15;22.32;;;14.45;;
27895;SDS011;15241;48.374;10.876;2023-03-01T08:36:16;26.02;;;15.55;;
27895;SDS011;15241;48.374;10.876;2023-03-01T08:41:15;28.57;;;16.32;;
27895;SDS011;15241;48.374;10.876;2023-03-01T08:46:15;27.85;;;15.10;;
27895;SDS011;15241;48.374;10.876;2023-03-01T08:51:14;25.20;;;15.28;;
27895;SDS011;15241;48.374;10.876;2023-03-01T08:56:15;26.48;;;15.10;;
27895;SDS011;15241;48.374;10.876;2023-03-01T09:01:15;24.92;;;16.50;;
27895;SDS011;15241;48.374;10.876;2023-03-01T09:06:16;25.60;;;15.63;;
27895;SDS011;15241;48.374;10.876;2023-03-01T09:11:19;27.73;;;15.95;;
27895;SDS011;15241;48.374;10.876;2023-03-01T09:16:19;24.32;;;15.23;;
27895;SDS011;15241;48.374;10.876;2023-03-01T09:21:20;23.12;;;14.87;;
27895;SDS011;15241;48.374;10.876;2023-03-01T09:26:20;26.37;;;16.75;;
27895;SDS011;15241;48.374;10.876;2023-03-01T09:31:20;24.40;;;15.28;;
27895;SDS011;15241;48.374;10.876;2023-03-01T09:36:21;24.92;;;15.05;;
27895;SDS011;15241;48.374;10.876;2023-03-01T09:41:29;32.15;;;16.52;;
27895;SDS011;15241;48.374;10.876;2023-03-01T09:46:35;22.10;;;14.65;;
27895;SDS011;15241;48.374;10.876;2023-03-01T09:51:34;24.60;;;16.57;;
27895;SDS011;15241;48.374;10.876;2023-03-01T09:56:34;25.08;;;15.28;;
27895;SDS011;15241;48.374;10.876;2023-03-01T10:01:44;23.77;;;15.93;;
27895;SDS011;15241;48.374;10.876;2023-03-01T10:06:48;23.33;;;16.53;;
27895;SDS011;15241;48.374;10.876;2023-03-01T10:17:10;22.40;;;16.25;;
27895;SDS011;15241;48.374;10.876;2023-03-01T10:22:12;23.67;;;17.45;;
27895;SDS011;15241;48.374;10.876;2023-03-01T10:32:35;19.55;;;15.90;;
27895;SDS011;15241;48.374;10.876;2023-03-01T10:37:34;21.07;;;16.35;;
27895;SDS011;15241;48.374;10.876;2023-03-01T10:42:36;22.70;;;16.50;;
27895;SDS011;15241;48.374;10.876;2023-03-01T10:47:37;20.23;;;16.05;;
27895;SDS011;15241;48.374;10.876;2023-03-01T10:52:40;20.02;;;16.87;;
27895;SDS011;15241;48.374;10.876;2023-03-01T10:57:41;21.10;;;17.07;;
27895;SDS011;15241;48.374;10.876;2023-03-01T11:02:40;22.65;;;16.10;;
27895;SDS011;15241;48.374;10.876;2023-03-01T11:07:47;20.95;;;16.12;;
27895;SDS011;15241;48.374;10.876;2023-03-01T11:12:46;20.90;;;16.90;;
27895;SDS011;15241;48.374;10.876;2023-03-01T11:17:47;18.90;;;16.27;;
27895;SDS011;15241;48.374;10.876;2023-03-01T11:22:47;18.75;;;16.75;;
27895;SDS011;15241;48.374;10.876;2023-03-01T11:27:48;18.52;;;16.48;;
27895;SDS011;15241;48.374;10.876;2023-03-01T11:32:50;18.12;;;16.27;;
27895;SDS011;15241;48.374;10.876;2023-03-01T11:43:01;16.40;;;14.78;;
27895;SDS011;15241;48.374;10.876;2023-03-01T11:48:07;17.57;;;15.98;;
27895;SDS011;15241;48.374;10.876;2023-03-01T11:53:28;16.12;;;14.63;;
27895;SDS011;15241;48.374;10.876;2023-03-01T11:58:39;15.50;;;14.10;;
27895;SDS011;15241;48.374;10.876;2023-03-01T12:04:02;15.08;;;13.80;;
27895;SDS011;15241;48.374;10.876;2023-03-01T12:09:11;15.38;;;14.07;;
27895;SDS011;15241;48.374;10.876;2023-03-01T12:14:21;14.15;;;13.05;;
27895;SDS011;15241;48.374;10.876;2023-03-01T12:19:39;13.43;;;12.43;;
27895;SDS011;15241;48.374;10.876;2023-03-01T12:30:42;14.05;;;13.05;;
27895;SDS011;15241;48.374;10.876;2023-03-01T12:35:52;14.35;;;13.25;;
27895;SDS011;15241;48.374;10.876;2023-03-01T12:46:49;14.15;;;13.13;;
27895;SDS011;15241;48.374;10.876;2023-03-01T12:51:57;14.23;;;13.22;;
27895;SDS011;15241;48.374;10.876;2023-03-01T12:57:00;14.25;;;13.30;;
27895;SDS011;15241;48.374;10.876;2023-03-01T13:02:12;14.20;;;13.10;;
27895;SDS011;15241;48.374;10.876;2023-03-01T13:07:19;14.47;;;13.48;;
27895;SDS011;15241;48.374;10.876;2023-03-01T13:17:47;13.90;;;12.98;;
27895;SDS011;15241;48.374;10.876;2023-03-01T13:22:48;14.15;;;13.13;;
27895;SDS011;15241;48.374;10.876;2023-03-01T13:27:52;14.75;;;13.75;;
27895;SDS011;15241;48.374;10.876;2023-03-01T13:32:57;13.78;;;12.78;;
27895;SDS011;15241;48.374;10.876;2023-03-01T13:38:37;14.00;;;12.93;;
27895;SDS011;15241;48.374;10.876;2023-03-01T13:43:38;13.40;;;12.50;;
27895;SDS011;15241;48.374;10.876;2023-03-01T13:48:39;12.90;;;12.10;;
27895;SDS011;15241;48.374;10.876;2023-03-01T13:53:41;13.60;;;12.58;;
27895;SDS011;15241;48.374;10.876;2023-03-01T13:58:47;13.20;;;12.30;;
27895;SDS011;15241;48.374;10.876;2023-03-01T14:03:47;12.70;;;11.85;;
27895;SDS011;15241;48.374;10.876;2023-03-01T14:08:48;13.10;;;12.10;;
27895;SDS011;15241;48.374;10.876;2023-03-01T14:13:54;12.80;;;11.70;;
27895;SDS011;15241;48.374;10.876;2023-03-01T14:19:03;12.45;;;11.55;;
27895;SDS011;15241;48.374;10.876;2023-03-01T14:24:14;13.13;;;12.23;;
27895;SDS011;15241;48.374;10.876;2023-03-01T14:29:25;12.85;;;11.95;;
27895;SDS011;15241;48.374;10.876;2023-03-01T14:34:26;13.22;;;12.33;;
27895;SDS011;15241;48.374;10.876;2023-03-01T14:39:27;13.58;;;12.53;;
27895;SDS011;15241;48.374;10.876;2023-03-01T14:44:25;13.65;;;12.63;;
27895;SDS011;15241;48.374;10.876;2023-03-01T14:49:26;13.40;;;12.23;;
27895;SDS011;15241;48.374;10.876;2023-03-01T14:54:28;13.35;;;12.25;;
27895;SDS011;15241;48.374;10.876;2023-03-01T14:59:29;13.28;;;12.20;;
27895;SDS011;15241;48.374;10.876;2023-03-01T15:04:31;12.37;;;11.48;;
27895;SDS011;15241;48.374;10.876;2023-03-01T15:09:32;12.85;;;11.73;;
27895;SDS011;15241;48.374;10.876;2023-03-01T15:14:39;13.32;;;12.18;;
27895;SDS011;15241;48.374;10.876;2023-03-01T15:19:40;13.22;;;12.13;;
27895;SDS011;15241;48.374;10.876;2023-03-01T15:24:40;13.65;;;12.53;;
27895;SDS011;15241;48.374;10.876;2023-03-01T15:29:40;13.72;;;12.43;;
27895;SDS011;15241;48.374;10.876;2023-03-01T15:34:42;12.63;;;11.43;;
27895;SDS011;15241;48.374;10.876;2023-03-01T15:39:42;13.50;;;12.35;;
27895;SDS011;15241;48.374;10.876;2023-03-01T15:44:43;12.95;;;11.85;;
27895;SDS011;15241;48.374;10.876;2023-03-01T15:49:42;14.65;;;13.10;;
27895;SDS011;15241;48.374;10.876;2023-03-01T15:54:42;15.00;;;13.50;;
27895;SDS011;15241;48.374;10.876;2023-03-01T15:59:41;14.20;;;12.63;;
27895;SDS011;15241;48.374;10.876;2023-03-01T16:04:40;13.28;;;11.97;;
27895;SDS011;15241;48.374;10.876;2023-03-01T16:09:39;14.33;;;12.95;;
27895;SDS011;15241;48.374;10.876;2023-03-01T16:14:38;14.10;;;12.75;;
27895;SDS011;15241;48.374;10.876;2023-03-01T16:19:37;14.45;;;12.95;;
27895;SDS011;15241;48.374;10.876;2023-03-01T16:24:41;12.93;;;11.55;;
27895;SDS011;15241;48.374;10.876;2023-03-01T16:29:41;15.88;;;12.25;;
27895;SDS011;15241;48.374;10.876;2023-03-01T16:34:39;15.45;;;13.05;;
27895;SDS011;15241;48.374;10.876;2023-03-01T16:39:38;17.17;;;13.03;;
27895;SDS011;15241;48.374;10.876;2023-03-01T16:44:37;17.12;;;12.53;;
27895;SDS011;15241;48.374;10.876;2023-03-01T16:49:36;17.90;;;13.08;;
27895;SDS011;15241;48.374;10.876;2023-03-01T16:54:35;15.60;;;12.35;;
27895;SDS011;15241;48.374;10.876;2023-03-01T16:59:36;15.38;;;12.40;;
27895;SDS011;15241;48.374;10.876;2023-03-01T17:04:35;19.55;;;13.05;;
27895;SDS011;15241;48.374;10.876;2023-03-01T17:09:34;19.45;;;12.65;;
27895;SDS011;15241;48.374;10.876;2023-03-01T17:14:34;20.30;;;13.55;;
27895;SDS011;15241;48.374;10.876;2023-03-01T17:19:33;19.02;;;12.68;;
27895;SDS011;15241;48.374;10.876;2023-03-01T17:24:33;18.10;;;12.60;;
27895;SDS011;15241;48.374;10.876;2023-03-01T17:29:33;18.37;;;13.32;;
27895;SDS011;15241;48.374;10.876;2023-03-01T17:34:32;21.87;;;13.30;;
27895;SDS011;15241;48.374;10.876;2023-03-01T17:39:32;18.92;;;13.35;;
27895;SDS011;15241;48.374;10.876;2023-03-01T17:44:31;19.95;;;13.88;;
27895;SDS011;15241;48.374;10.876;2023-03-01T17:49:30;19.65;;;13.30;;
27895;SDS011;15241;48.374;10.876;2023-03-01T17:54:29;22.70;;;14.80;;
27895;SDS011;15241;48.374;10.876;2023-03-01T17:59:28;23.05;;;14.50;;
27895;SDS011;15241;48.374;10.876;2023-03-01T18:04:27;24.55;;;15.65;;
27895;SDS011;15241;48.374;10.876;2023-03-01T18:09:28;24.52;;;14.90;;
27895;SDS011;15241;48.374;10.876;2023-03-01T18:14:27;20.77;;;14.33;;
27895;SDS011;15241;48.374;10.876;2023-03-01T18:19:26;26.37;;;16.50;;
27895;SDS011;15241;48.374;10.876;2023-03-01T18:24:25;24.20;;;15.55;;
27895;SDS011;15241;48.374;10.876;2023-03-01T18:29:24;26.20;;;17.85;;
27895;SDS011;15241;48.374;10.876;2023-03-01T18:34:23;27.73;;;16.85;;
27895;SDS011;15241;48.374;10.876;2023-03-01T18:39:23;30.62;;;18.00;;
27895;SDS011;15241;48.374;10.876;2023-03-01T18:44:22;31.30;;;17.50;;
27895;SDS011;15241;48.374;10.876;2023-03-01T18:49:21;29.42;;;17.37;;
27895;SDS011;15241;48.374;10.876;2023-03-01T18:54:20;30.75;;;17.82;;
27895;SDS011;15241;48.374;10.876;2023-03-01T18:59:19;29.45;;;19.07;;
27895;SDS011;15241;48.374;10.876;2023-03-01T19:04:18;28.95;;;18.27;;
27895;SDS011;15241;48.374;10.876;2023-03-01T19:09:17;30.37;;;19.05;;
27895;SDS011;15241;48.374;10.876;2023-03-01T19:14:16;28.30;;;17.37;;
27895;SDS011;15241;48.374;10.876;2023-03-01T19:19:15;28.38;;;18.90;;
27895;SDS011;15241;48.374;10.876;2023-03-01T19:24:14;29.48;;;18.07;;
27895;SDS011;15241;48.374;10.876;2023-03-01T19:29:13;28.77;;;19.10;;
27895;SDS011;15241;48.374;10.876;2023-03-01T19:34:12;29.00;;;18.37;;
27895;SDS011;15241;48.374;10.876;2023-03-01T19:39:12;30.00;;;18.23;;
27895;SDS011;15241;48.374;10.876;2023-03-01T19:44:11;29.90;;;18.10;;
27895;SDS011;15241;48.374;10.876;2023-03-01T19:49:10;30.92;;;17.60;;
27895;SDS011;15241;48.374;10.876;2023-03-01T19:54:09;27.93;;;17.70;;
27895;SDS011;15241;48.374;10.876;2023-03-01T19:59:08;29.05;;;17.42;;
27895;SDS011;15241;48.374;10.876;2023-03-01T20:04:07;29.92;;;18.25;;
27895;SDS011;15241;48.374;10.876;2023-03-01T20:09:07;26.48;;;16.45;;
27895;SDS011;15241;48.374;10.876;2023-03-01T20:14:06;30.30;;;18.98;;
27895;SDS011;15241;48.374;10.876;2023-03-01T20:19:05;32.53;;;19.17;;
27895;SDS011;15241;48.374;10.876;2023-03-01T20:24:05;30.27;;;17.62;;
27895;SDS011;15241;48.374;10.876;2023-03-01T20:29:07;29.23;;;18.10;;
27895;SDS011;15241;48.374;10.876;2023-03-01T20:34:07;28.73;;;17.70;;
27895;SDS011;15241;48.374;10.876;2023-03-01T20:39:06;28.80;;;16.75;;
27895;SDS011;15241;48.374;10.876;2023-03-01T20:44:06;31.37;;;17.70;;
27895;SDS011;15241;48.374;10.876;2023-03-01T20:49:04;24.65;;;15.98;;
27895;SDS011;15241;48.374;10.876;2023-03-01T20:54:03;26.23;;;16.55;;
27895;SDS011;15241;48.374;10.876;2023-03-01T20:59:03;26.57;;;15.78;;
27895;SDS011;15241;48.374;10.876;2023-03-01T21:04:02;28.12;;;17.40;;
27895;SDS011;15241;48.374;10.876;2023-03-01T21:09:02;29.00;;;16.42;;
27895;SDS011;15241;48.374;10.876;2023-03-01T21:14:01;27.17;;;16.42;;
27895;SDS011;15241;48.374;10.876;2023-03-01T21:19:00;25.25;;;16.10;;
27895;SDS011;15241;48.374;10.876;2023-03-01T21:23:59;28.85;;;16.82;;
27895;SDS011;15241;48.374;10.876;2023-03-01T21:28:59;28.07;;;15.80;;
27895;SDS011;15241;48.374;10.876;2023-03-01T21:33:59;23.73;;;14.60;;
27895;SDS011;15241;48.374;10.876;2023-03-01T21:38:59;24.45;;;14.85;;
27895;SDS011;15241;48.374;10.876;2023-03-01T21:43:59;25.50;;;16.07;;
27895;SDS011;15241;48.374;10.876;2023-03-01T21:49:04;23.87;;;14.28;;
27895;SDS011;15241;48.374;10.876;2023-03-01T21:54:11;24.00;;;14.28;;
27895;SDS011;15241;48.374;10.876;2023-03-01T21:59:13;29.60;;;14.63;;
27895;SDS011;15241;48.374;10.876;2023-03-01T22:04:13;24.90;;;14.93;;
27895;SDS011;15241;48.374;10.876;2023-03-01T22:09:14;27.35;;;15.55;;
27895;SDS011;15241;48.374;10.876;2023-03-01T22:14:15;26.52;;;16.27;;
27895;SDS011;15241;48.374;10.876;2023-03-01T22:19:15;24.85;;;15.08;;
27895;SDS011;15241;48.374;10.876;2023-03-01T22:24:15;27.32;;;15.63;;
27895;SDS011;15241;48.374;10.876;2023-03-01T22:29:16;26.37;;;15.25;;
27895;SDS011;15241;48.374;10.876;2023-03-01T22:34:17;29.65;;;15.23;;
27895;SDS011;15241;48.374;10.876;2023-03-01T22:39:17;26.15;;;14.45;;
27895;SDS011;15241;48.374;10.876;2023-03-01T22:44:18;24.67;;;14.15;;
27895;SDS011;15241;48.374;10.876;2023-03-01T22:49:18;22.07;;;14.07;;
27895;SDS011;15241;48.374;10.876;2023-03-01T22:54:17;25.35;;;14.90;;
27895;SDS011;15241;48.374;10.876;2023-03-01T22:59:19;27.80;;;13.93;;
27895;SDS011;15241;48.374;10.876;2023-03-01T23:04:26;23.90;;;14.90;;
27895;SDS011;15241;48.374;10.876;2023-03-01T23:09:26;28.73;;;15.23;;
27895;SDS011;15241;48.374;10.876;2023-03-01T23:14:28;22.13;;;13.35;;
27895;SDS011;15241;48.374;10.876;2023-03-01T23:19:28;20.10;;;13.35;;
27895;SDS011;15241;48.374;10.876;2023-03-01T23:24:28;23.47;;;14.43;;
27895;SDS011;15241;48.374;10.876;2023-03-01T23:29:27;24.63;;;14.30;;
27895;SDS011;15241;48.374;10.876;2023-03-01T23:34:47;26.90;;;14.45;;
27895;SDS011;15241;48.374;10.876;2023-03-01T23:39:46;22.42;;;12.98;;
27895;SDS011;15241;48.374;10.876;2023-03-01T23:44:45;23.40;;;13.60;;
27895;SDS011;15241;48.374;10.876;2023-03-01T23:49:49;25.20;;;13.68;;
27895;SDS011;15241;48.374;10.876;2023-03-01T23:54:48;24.47;;;12.65;;
27895;SDS011;15241;48.374;10.876;2023-03-01T23:59:47;24.72;;;14.13;;
